createdAt,value
2018-08-14T00:00:30.654Z,6.23
2018-08-14T00:02:59.643Z,4.90
2018-08-14T00:05:28.211Z,5.17
2018-08-14T00:07:56.560Z,5.37
2018-08-14T00:10:25.268Z,5.20
2018-08-14T00:12:53.551Z,4.40
2018-08-14T00:15:21.871Z,4.10
2018-08-14T00:17:50.308Z,4.10
2018-08-14T00:20:20.224Z,4.27
2018-08-14T00:22:48.771Z,4.33
2018-08-14T00:25:17.187Z,4.10
2018-08-14T00:27:45.656Z,4.47
2018-08-14T00:30:19.366Z,4.90
2018-08-14T00:32:47.782Z,5.03
2018-08-14T00:35:16.219Z,5.17
2018-08-14T00:37:44.532Z,5.30
2018-08-14T00:40:17.409Z,5.33
2018-08-14T00:42:46.091Z,5.40
2018-08-14T00:45:16.307Z,4.93
2018-08-14T00:47:44.989Z,6.33
2018-08-14T00:50:13.925Z,6.37
2018-08-14T00:52:42.559Z,7.17
2018-08-14T00:55:12.263Z,6.50
2018-08-14T00:57:41.067Z,7.50
2018-08-14T01:00:11.669Z,8.23
2018-08-14T01:02:39.962Z,8.37
2018-08-14T01:05:09.194Z,7.80
2018-08-14T01:07:37.495Z,9.07
2018-08-14T01:10:08.575Z,11.07
2018-08-14T01:12:36.994Z,10.83
2018-08-14T01:15:06.510Z,11.53
2018-08-14T01:17:34.870Z,12.73
2018-08-14T01:20:03.207Z,12.33
2018-08-14T01:22:32.099Z,13.27
2018-08-14T01:25:00.417Z,11.57
2018-08-14T01:27:28.731Z,11.40
2018-08-14T01:29:57.028Z,11.67
2018-08-14T01:32:25.351Z,10.17
2018-08-14T01:34:53.660Z,10.57
2018-08-14T01:37:21.962Z,10.47
2018-08-14T01:39:50.264Z,10.20
2018-08-14T01:42:18.568Z,9.87
2018-08-14T01:44:46.867Z,9.17
2018-08-14T01:47:15.200Z,11.00
2018-08-14T01:49:43.500Z,10.27
2018-08-14T01:52:11.824Z,10.97
2018-08-14T01:54:40.163Z,11.20
2018-08-14T01:57:08.459Z,11.17
2018-08-14T01:59:36.795Z,10.77
2018-08-14T02:02:05.117Z,10.73
2018-08-14T02:04:33.421Z,11.37
2018-08-14T02:07:01.755Z,11.13
2018-08-14T02:09:30.059Z,8.33
2018-08-14T02:11:58.363Z,7.50
2018-08-14T02:14:26.679Z,6.33
2018-08-14T02:16:54.998Z,5.60
2018-08-14T02:19:23.287Z,4.10
2018-08-14T02:21:51.600Z,3.07
2018-08-14T02:24:19.911Z,2.10
2018-08-14T02:26:48.241Z,2.13
2018-08-14T02:29:16.563Z,1.73
2018-08-14T02:31:44.868Z,1.80
2018-08-14T02:34:13.192Z,1.90
2018-08-14T02:36:41.495Z,1.00
2018-08-14T02:39:11.336Z,1.50
2018-08-14T02:41:39.672Z,1.10
2018-08-14T02:44:07.968Z,1.20
2018-08-14T02:46:36.380Z,1.07
2018-08-14T02:49:04.687Z,1.13
2018-08-14T02:51:32.984Z,1.33
2018-08-14T02:54:01.422Z,1.20
2018-08-14T02:56:29.983Z,1.40
2018-08-14T02:58:58.268Z,1.33
2018-08-14T03:01:26.583Z,1.30
2018-08-14T03:03:54.871Z,1.17
2018-08-14T03:06:23.188Z,1.23
2018-08-14T03:08:51.488Z,1.60
2018-08-14T03:11:19.787Z,1.40
2018-08-14T03:13:48.083Z,1.23
2018-08-14T03:16:16.636Z,1.70
2018-08-14T03:18:44.992Z,1.30
2018-08-14T03:21:13.296Z,1.00
2018-08-14T03:23:41.617Z,1.10
2018-08-14T03:26:09.907Z,1.13
2018-08-14T03:28:38.227Z,1.47
2018-08-14T03:31:06.584Z,1.17
2018-08-14T03:33:34.875Z,1.23
2018-08-14T03:36:03.188Z,0.93
2018-08-14T03:38:31.488Z,0.90
2018-08-14T03:40:59.781Z,1.10
2018-08-14T03:43:28.099Z,1.00
2018-08-14T03:45:56.395Z,1.20
2018-08-14T03:48:24.691Z,1.20
2018-08-14T03:50:53.017Z,1.07
2018-08-14T03:53:21.321Z,1.47
2018-08-14T03:55:49.659Z,0.93
2018-08-14T03:58:17.959Z,1.20
2018-08-14T04:00:46.250Z,1.43
2018-08-14T04:03:14.552Z,1.03
2018-08-14T04:05:42.865Z,0.90
2018-08-14T04:08:11.176Z,1.57
2018-08-14T04:10:39.497Z,1.30
2018-08-14T04:13:07.801Z,1.20
2018-08-14T04:15:36.100Z,0.90
2018-08-14T04:18:09.360Z,1.30
2018-08-14T04:20:38.034Z,1.07
2018-08-14T04:23:06.347Z,1.30
2018-08-14T04:25:34.661Z,1.10
2018-08-14T04:28:02.964Z,1.20
2018-08-14T04:30:31.257Z,1.10
2018-08-14T04:32:59.589Z,0.97
2018-08-14T04:35:27.926Z,1.30
2018-08-14T04:37:56.236Z,1.30
2018-08-14T04:40:24.529Z,1.00
2018-08-14T04:42:52.851Z,1.10
2018-08-14T04:45:21.155Z,0.87
2018-08-14T04:47:49.476Z,1.00
2018-08-14T04:50:17.799Z,1.50
2018-08-14T04:52:46.117Z,1.10
2018-08-14T04:55:14.417Z,1.47
2018-08-14T04:57:43.107Z,1.33
2018-08-14T05:00:13.386Z,0.80
2018-08-14T05:02:41.699Z,1.50
2018-08-14T05:05:11.203Z,1.23
2018-08-14T05:07:39.786Z,1.57
2018-08-14T05:10:09.372Z,1.43
2018-08-14T05:12:38.300Z,1.30
2018-08-14T05:15:07.091Z,1.73
2018-08-14T05:17:35.479Z,1.40
2018-08-14T05:20:04.655Z,1.63
2018-08-14T05:22:33.036Z,1.57
2018-08-14T05:25:01.347Z,1.30
2018-08-14T05:27:29.650Z,1.60
2018-08-14T05:29:57.936Z,1.50
2018-08-14T05:32:26.255Z,1.10
2018-08-14T10:40:53.382Z,1.63
2018-08-14T10:43:43.591Z,2.03
2018-08-14T10:46:33.837Z,1.40
2018-08-14T10:49:24.126Z,0.90
2018-08-14T10:52:14.430Z,1.17
2018-08-14T10:55:04.732Z,1.10
2018-08-14T10:57:56.079Z,0.90
2018-08-14T11:00:46.355Z,1.20
2018-08-14T11:03:36.548Z,1.23
2018-08-14T11:06:26.839Z,1.37
2018-08-14T11:09:16.964Z,0.80
2018-08-14T11:12:14.047Z,1.50
2018-08-14T11:15:04.359Z,1.30
2018-08-14T11:17:54.447Z,1.37
2018-08-14T11:20:44.778Z,0.90
2018-08-14T11:23:35.226Z,1.33
2018-08-14T11:26:25.323Z,1.13
2018-08-14T11:29:15.311Z,1.10
2018-08-14T11:32:05.614Z,0.80
2018-08-14T11:34:55.927Z,1.20
2018-08-14T11:37:47.347Z,1.03
2018-08-14T11:40:38.458Z,0.77
2018-08-14T11:43:28.535Z,1.10
2018-08-14T11:46:19.147Z,1.10
2018-08-14T11:57:47.282Z,0.90
2018-08-14T12:00:38.358Z,1.43
2018-08-14T12:03:28.623Z,1.23
2018-08-14T12:06:18.640Z,1.10
2018-08-14T12:09:08.751Z,1.30
2018-08-14T12:11:58.930Z,1.40
2018-08-14T12:14:49.043Z,1.10
2018-08-14T12:17:39.222Z,1.20
2018-08-14T12:20:30.447Z,1.20
2018-08-14T12:23:21.644Z,1.60
2018-08-14T12:26:12.998Z,1.50
2018-08-14T12:29:03.143Z,1.10
2018-08-14T12:31:53.335Z,1.20
2018-08-14T12:34:44.342Z,1.67
2018-08-14T12:37:34.621Z,0.90
2018-08-14T12:40:26.888Z,1.30
2018-08-14T12:43:17.406Z,1.20
2018-08-14T12:46:07.562Z,1.23
2018-08-14T12:48:57.960Z,1.40
2018-08-14T12:51:48.395Z,1.30
2018-08-14T12:54:38.671Z,1.53
2018-08-14T12:57:28.854Z,1.30
2018-08-14T13:00:20.036Z,1.20
2018-08-14T13:03:19.749Z,1.57
2018-08-14T13:06:09.923Z,2.03
2018-08-14T13:09:01.069Z,1.97
2018-08-14T13:11:52.223Z,1.37
2018-08-14T13:14:42.438Z,1.40
2018-08-14T13:17:32.886Z,2.53
2018-08-14T13:20:24.114Z,2.47
2018-08-14T13:23:14.257Z,2.13
2018-08-14T13:26:04.783Z,2.50
2018-08-14T13:28:55.968Z,2.90
2018-08-14T13:31:46.582Z,2.87
2018-08-14T13:34:36.890Z,3.37
2018-08-14T13:37:27.268Z,3.20
2018-08-14T13:40:19.615Z,3.70
2018-08-14T13:43:10.810Z,4.10
2018-08-14T13:46:01.049Z,4.03
2018-08-14T13:48:51.395Z,3.90
2018-08-14T13:51:41.701Z,4.80
2018-08-14T13:54:32.118Z,4.23
2018-08-14T13:57:22.388Z,4.67
2018-08-14T14:00:12.381Z,4.47
2018-08-14T14:03:02.767Z,4.03
2018-08-14T14:05:53.764Z,4.63
2018-08-14T14:08:44.829Z,5.10
2018-08-14T14:11:35.186Z,5.73
2018-08-14T14:14:26.178Z,5.70
2018-08-14T14:17:16.354Z,5.40
2018-08-14T14:20:06.401Z,6.50
2018-08-14T14:22:57.314Z,7.17
2018-08-14T14:25:47.706Z,6.63
2018-08-14T14:28:38.995Z,7.80
2018-08-14T14:31:30.179Z,7.07
2018-08-14T14:34:20.503Z,7.57
2018-08-14T14:37:11.443Z,8.33
2018-08-14T14:40:02.599Z,7.80
2018-08-14T14:42:52.949Z,8.87
2018-08-14T14:45:43.023Z,8.37
2018-08-14T14:48:34.120Z,8.80
2018-08-14T14:51:24.293Z,8.63
2018-08-14T14:54:14.678Z,8.90
2018-08-14T14:57:05.198Z,9.90
2018-08-14T14:59:55.271Z,9.33
2018-08-14T15:02:45.471Z,8.67
2018-08-14T15:05:35.910Z,8.60
2018-08-14T15:08:26.269Z,7.57
2018-08-14T15:11:16.863Z,8.17
2018-08-14T15:14:07.189Z,7.77
2018-08-14T15:16:57.480Z,8.23
2018-08-14T15:19:47.578Z,7.37
2018-08-14T15:22:37.877Z,6.87
2018-08-14T15:25:29.055Z,6.27
2018-08-14T15:29:27.750Z,5.97
2018-08-14T15:32:17.735Z,5.83
2018-08-14T15:35:07.872Z,5.53
2018-08-14T15:37:58.092Z,5.70
2018-08-14T15:40:49.203Z,5.30
2018-08-14T15:43:39.424Z,5.83
2018-08-14T15:46:29.519Z,5.93
2018-08-14T15:49:20.023Z,5.83
2018-08-14T15:52:10.012Z,5.37
2018-08-14T15:55:00.892Z,5.10
2018-08-14T15:57:51.274Z,5.17
2018-08-14T16:00:42.567Z,4.67
2018-08-14T16:03:34.613Z,4.63
2018-08-14T16:06:24.910Z,4.50
2018-08-14T16:09:15.011Z,4.60
2018-08-14T16:12:06.029Z,4.87
2018-08-14T16:14:56.319Z,4.83
2018-08-14T16:17:46.455Z,4.90
2018-08-14T16:20:36.516Z,5.40
2018-08-14T16:23:26.658Z,5.07
2018-08-14T16:26:16.978Z,4.50
2018-08-14T16:29:07.217Z,4.27
2018-08-14T16:31:58.159Z,4.10
2018-08-14T16:34:48.523Z,3.97
2018-08-14T16:37:38.590Z,3.80
2018-08-14T16:40:29.684Z,3.73
2018-08-14T16:43:20.707Z,3.50
2018-08-14T16:46:11.790Z,3.27
2018-08-14T16:49:02.028Z,3.40
2018-08-14T16:51:52.266Z,2.87
2018-08-14T16:54:43.426Z,2.93
2018-08-14T16:57:34.592Z,3.27
2018-08-14T17:00:30.633Z,3.37
2018-08-14T17:03:21.874Z,3.40
2018-08-14T17:06:12.314Z,4.27
2018-08-14T17:09:02.600Z,3.87
2018-08-14T17:11:52.948Z,4.27
2018-08-14T17:14:43.081Z,3.50
2018-08-14T17:17:33.118Z,3.53
2018-08-14T17:20:25.003Z,3.57
2018-08-14T17:23:15.116Z,3.70
2018-08-14T17:26:06.122Z,3.47
2018-08-14T17:28:56.422Z,3.17
2018-08-14T17:31:47.286Z,3.30
2018-08-14T17:34:37.424Z,3.27
2018-08-14T17:37:27.714Z,3.30
2018-08-14T17:40:19.063Z,3.23
2018-08-14T17:43:09.149Z,3.60
2018-08-14T17:45:59.214Z,3.67
2018-08-14T17:48:49.486Z,3.13
2018-08-14T17:51:40.006Z,3.27
2018-08-14T17:54:30.187Z,3.73
2018-08-14T17:57:21.210Z,3.77
2018-08-14T18:00:12.287Z,3.30
2018-08-14T18:03:04.249Z,2.90
2018-08-14T18:05:54.471Z,3.07
2018-08-14T18:08:45.673Z,3.10
2018-08-14T18:11:36.649Z,3.57
2018-08-14T18:14:26.990Z,3.47
2018-08-14T18:17:17.243Z,2.90
2018-08-14T18:20:07.335Z,3.43
2018-08-14T18:22:58.483Z,3.03
2018-08-14T18:25:48.971Z,2.90
2018-08-14T18:28:39.311Z,3.20
2018-08-14T18:31:29.426Z,3.13
2018-08-14T18:34:19.704Z,3.17
2018-08-14T18:37:10.728Z,3.20
2018-08-14T18:40:00.708Z,3.10
2018-08-14T18:42:52.342Z,2.93
2018-08-14T18:45:42.582Z,2.90
2018-08-14T18:48:33.027Z,3.23
2018-08-14T18:51:24.281Z,2.83
2018-08-14T18:54:14.432Z,2.93
2018-08-14T18:57:04.646Z,3.00
2018-08-14T18:59:55.021Z,2.90
2018-08-14T19:02:45.802Z,3.20
2018-08-14T19:05:36.014Z,3.00
2018-08-14T19:08:26.559Z,2.93
2018-08-14T19:11:16.697Z,2.50
2018-08-14T19:14:06.972Z,2.83
2018-08-14T19:16:57.267Z,2.63
2018-08-14T19:19:47.595Z,3.20
2018-08-14T19:22:38.571Z,3.27
2018-08-14T19:25:28.860Z,3.23
2018-08-14T19:28:19.081Z,2.67
2018-08-14T19:31:10.196Z,2.80
2018-08-14T19:34:01.487Z,3.30
2018-08-14T19:36:51.837Z,3.27
2018-08-14T19:39:42.107Z,3.03
2018-08-14T19:42:33.170Z,2.83
2018-08-14T19:45:24.064Z,3.27
2018-08-14T19:48:14.682Z,3.10
2018-08-14T19:51:05.198Z,2.93
2018-08-14T19:53:56.413Z,3.33
2018-08-14T19:56:46.795Z,3.17
2018-08-14T19:59:37.887Z,3.37
2018-08-14T20:02:28.337Z,2.97
2018-08-14T20:05:21.581Z,2.70
2018-08-14T20:08:11.776Z,3.43
2018-08-14T20:11:02.114Z,3.60
2018-08-14T20:13:52.444Z,3.43
2018-08-14T20:16:46.731Z,3.30
2018-08-14T20:19:40.101Z,3.97
2018-08-14T20:22:31.139Z,3.80
2018-08-14T20:25:21.738Z,3.57
2018-08-14T20:28:12.099Z,3.70
2018-08-14T20:31:02.636Z,3.67
2018-08-14T20:33:52.770Z,3.97
2018-08-14T20:36:43.017Z,3.80
2018-08-14T20:39:33.282Z,3.40
2018-08-14T20:42:23.587Z,4.07
2018-08-14T20:45:14.602Z,3.40
2018-08-14T20:48:05.002Z,4.33
2018-08-14T20:50:56.223Z,3.80
2018-08-14T20:53:46.643Z,3.77
2018-08-14T20:56:36.970Z,4.20
2018-08-14T20:59:26.971Z,3.90
2018-08-14T21:02:17.220Z,4.80
2018-08-14T21:05:08.230Z,4.40
2018-08-14T21:07:59.210Z,4.87
2018-08-14T21:10:49.582Z,4.97
2018-08-14T21:13:40.035Z,5.40
2018-08-14T21:16:31.596Z,5.13
2018-08-14T21:19:22.167Z,5.20
2018-08-14T21:22:12.804Z,5.17
2018-08-14T21:25:03.274Z,5.40
2018-08-14T21:27:53.798Z,4.77
2018-08-14T21:30:44.164Z,4.67
2018-08-14T21:33:35.295Z,5.20
2018-08-14T21:36:25.415Z,5.93
2018-08-14T21:39:15.750Z,5.40
2018-08-14T21:42:06.122Z,5.20
2018-08-14T21:44:56.231Z,5.37
2018-08-14T21:47:46.619Z,5.60
2018-08-14T21:50:37.174Z,6.63
2018-08-14T21:53:27.331Z,7.00
2018-08-14T21:56:17.623Z,7.00
2018-08-14T21:59:08.835Z,7.43
2018-08-14T22:01:58.937Z,7.23
2018-08-14T22:04:49.187Z,7.53
2018-08-14T22:07:39.534Z,6.70
2018-08-14T22:10:30.419Z,7.03
2018-08-14T22:13:20.705Z,6.73
2018-08-14T22:16:11.223Z,7.17
2018-08-14T22:19:01.827Z,7.30
2018-08-14T22:21:52.191Z,7.67
2018-08-14T22:24:42.269Z,8.03
2018-08-14T22:27:32.631Z,7.57
2018-08-14T22:30:00.679Z,8.50
2018-08-14T22:32:28.746Z,7.47
2018-08-14T22:34:56.759Z,7.87
2018-08-14T22:37:24.944Z,7.50
2018-08-14T22:39:53.047Z,7.23
2018-08-14T22:42:21.127Z,7.23
2018-08-14T22:44:49.238Z,7.00
2018-08-14T22:47:17.359Z,7.07
2018-08-14T22:49:45.386Z,6.87
2018-08-14T22:52:13.407Z,6.80
2018-08-14T22:54:41.491Z,7.17
2018-08-14T22:57:09.553Z,6.60
2018-08-14T22:59:37.616Z,6.53
2018-08-14T23:02:05.690Z,6.70
2018-08-14T23:04:33.754Z,5.73
2018-08-14T23:07:01.778Z,6.60
2018-08-14T23:09:29.820Z,6.00
2018-08-14T23:11:57.987Z,6.43
2018-08-14T23:14:26.060Z,6.10
2018-08-14T23:16:54.123Z,6.47
2018-08-14T23:19:22.195Z,6.60
2018-08-14T23:21:50.281Z,5.87
2018-08-14T23:24:18.343Z,6.30
2018-08-14T23:26:46.368Z,6.03
2018-08-14T23:29:14.399Z,5.73
2018-08-14T23:31:42.429Z,6.10
2018-08-14T23:34:10.447Z,6.50
2018-08-14T23:36:38.498Z,6.17
2018-08-14T23:39:08.297Z,5.70
2018-08-14T23:41:36.317Z,5.13
2018-08-14T23:44:04.471Z,5.20
2018-08-14T23:46:32.614Z,5.43
2018-08-14T23:49:00.690Z,5.77
2018-08-14T23:51:28.817Z,5.43
2018-08-14T23:53:56.836Z,5.50
2018-08-14T23:56:24.851Z,5.40
2018-08-14T23:58:52.967Z,5.87
